createdAt,value
2023-01-31T00:01:27.589Z,97869.66
2023-01-31T00:04:00.264Z,97867.91
2023-01-31T00:06:28.571Z,97879.31
2023-01-31T00:08:56.527Z,97890.44
2023-01-31T00:11:26.183Z,97891.41
2023-01-31T00:13:53.863Z,97892.34
2023-01-31T00:16:23.626Z,97877.16
2023-01-31T00:18:50.773Z,97878.88
2023-01-31T00:21:25.570Z,97885.34
2023-01-31T00:23:53.975Z,97887.16
2023-01-31T00:26:21.989Z,97892.63
2023-01-31T00:28:50.034Z,97902.78
2023-01-31T00:31:18.758Z,97914.91
2023-01-31T00:33:47.538Z,97910.47
2023-01-31T00:36:17.118Z,97904.78
2023-01-31T00:38:44.828Z,97902.00
2023-01-31T00:41:12.265Z,97894.25
2023-01-31T00:43:38.922Z,97900.97
2023-01-31T00:46:05.900Z,97908.03
2023-01-31T00:48:33.144Z,97916.88
2023-01-31T00:50:59.852Z,97921.13
2023-01-31T00:53:26.487Z,97911.75
2023-01-31T00:55:54.735Z,97912.91
2023-01-31T00:58:22.056Z,97909.78
2023-01-31T01:00:49.083Z,97907.78
2023-01-31T01:03:15.761Z,97905.59
2023-01-31T01:05:42.334Z,97905.22
2023-01-31T01:08:08.938Z,97913.69
2023-01-31T01:10:35.644Z,97906.03
2023-01-31T01:13:02.731Z,97913.69
2023-01-31T01:15:29.319Z,97912.84
2023-01-31T01:17:56.456Z,97922.91
2023-01-31T01:20:23.879Z,97929.78
2023-01-31T01:22:50.418Z,97920.22
2023-01-31T01:25:17.228Z,97923.00
2023-01-31T01:27:43.876Z,97933.16
2023-01-31T01:30:11.348Z,97924.75
2023-01-31T01:32:38.376Z,97929.25
2023-01-31T01:35:05.274Z,97931.47
2023-01-31T01:37:31.855Z,97926.47
2023-01-31T01:39:58.428Z,97931.59
2023-01-31T01:42:26.768Z,97930.44
2023-01-31T01:44:56.395Z,97927.19
2023-01-31T01:47:29.267Z,97926.97
2023-01-31T01:50:23.589Z,97944.38
2023-01-31T01:52:58.657Z,97943.50
2023-01-31T01:55:33.474Z,97945.09
2023-01-31T01:58:24.241Z,97943.16
2023-01-31T02:00:54.255Z,97944.28
2023-01-31T02:03:21.742Z,97944.50
2023-01-31T02:05:52.958Z,97945.09
2023-01-31T02:08:23.238Z,97941.38
2023-01-31T02:10:52.736Z,97933.81
2023-01-31T02:13:21.129Z,97945.94
2023-01-31T02:15:48.648Z,97952.91
2023-01-31T02:18:16.818Z,97939.09
2023-01-31T02:20:49.310Z,97939.34
2023-01-31T02:23:37.604Z,97938.91
2023-01-31T02:26:41.932Z,97945.34
2023-01-31T02:29:32.525Z,97941.25
2023-01-31T02:32:20.519Z,97947.41
2023-01-31T02:35:05.205Z,97948.41
2023-01-31T02:37:57.999Z,97951.50
2023-01-31T02:40:55.008Z,97947.22
2023-01-31T02:43:56.554Z,97946.66
2023-01-31T02:46:29.855Z,97940.78
2023-01-31T02:49:08.571Z,97945.59
2023-01-31T02:52:07.248Z,97944.28
2023-01-31T02:54:55.916Z,97930.19
2023-01-31T02:57:23.484Z,97937.06
2023-01-31T02:59:50.747Z,97945.28
2023-01-31T03:02:18.257Z,97946.19
2023-01-31T03:04:44.839Z,97954.81
2023-01-31T03:07:37.973Z,97954.91
2023-01-31T03:10:23.474Z,97966.16
2023-01-31T03:12:55.433Z,97963.16
2023-01-31T03:16:18.982Z,97969.22
2023-01-31T03:19:13.615Z,97969.88
2023-01-31T03:21:47.213Z,97975.25
2023-01-31T03:24:14.857Z,97976.97
2023-01-31T03:26:44.545Z,97985.63
2023-01-31T03:29:15.336Z,97993.00
2023-01-31T03:32:06.255Z,97987.31
2023-01-31T03:34:33.016Z,98001.94
2023-01-31T03:37:14.345Z,97997.53
2023-01-31T03:40:05.911Z,97995.47
2023-01-31T03:42:54.991Z,97997.41
2023-01-31T03:45:38.341Z,98005.16
2023-01-31T03:48:14.323Z,97999.63
2023-01-31T03:50:46.997Z,97995.72
2023-01-31T03:53:32.538Z,98005.28
2023-01-31T03:56:04.764Z,98008.47
2023-01-31T03:58:37.806Z,98019.88
2023-01-31T04:01:08.231Z,98009.69
2023-01-31T04:03:42.644Z,98012.03
2023-01-31T04:06:10.819Z,98022.66
2023-01-31T04:08:40.298Z,98008.22
2023-01-31T04:11:10.856Z,98014.13
2023-01-31T04:13:37.335Z,98020.03
2023-01-31T04:16:04.319Z,98018.44
2023-01-31T04:18:30.838Z,98025.66
2023-01-31T04:20:57.304Z,98028.19
2023-01-31T04:23:25.014Z,98032.53
2023-01-31T04:25:53.442Z,98028.66
2023-01-31T04:28:19.935Z,98024.44
2023-01-31T04:30:46.434Z,98033.31
2023-01-31T04:33:15.337Z,98041.16
2023-01-31T04:35:41.800Z,98034.69
2023-01-31T04:38:08.771Z,98040.16
2023-01-31T04:40:35.413Z,98048.06
2023-01-31T04:43:01.906Z,98052.22
2023-01-31T04:45:28.399Z,98056.44
2023-01-31T04:47:56.939Z,98062.56
2023-01-31T04:50:26.112Z,98054.09
2023-01-31T04:52:56.045Z,98065.44
2023-01-31T04:55:22.705Z,98072.31
2023-01-31T04:57:51.717Z,98070.56
2023-01-31T05:00:18.993Z,98075.53
2023-01-31T05:02:46.353Z,98078.34
2023-01-31T05:05:12.966Z,98084.47
2023-01-31T05:07:40.026Z,98081.84
2023-01-31T05:10:07.734Z,98093.25
2023-01-31T05:12:34.309Z,98091.50
2023-01-31T05:15:01.830Z,98092.25
2023-01-31T05:17:29.953Z,98106.38
2023-01-31T05:20:00.421Z,98115.53
2023-01-31T05:22:26.996Z,98114.94
2023-01-31T05:24:57.630Z,98116.72
2023-01-31T05:27:27.605Z,98116.41
2023-01-31T05:29:54.329Z,98118.44
2023-01-31T05:32:20.934Z,98121.78
2023-01-31T05:34:47.384Z,98120.78
2023-01-31T05:37:16.121Z,98122.63
2023-01-31T05:39:45.213Z,98130.38
2023-01-31T05:42:14.411Z,98125.09
2023-01-31T05:44:40.871Z,98122.28
2023-01-31T05:47:07.364Z,98113.19
2023-01-31T05:49:34.556Z,98110.84
2023-01-31T05:52:01.242Z,98115.28
2023-01-31T05:54:28.291Z,98106.34
2023-01-31T05:56:54.783Z,98103.34
2023-01-31T05:59:21.318Z,98110.75
2023-01-31T06:01:47.834Z,98121.22
2023-01-31T06:04:16.764Z,98121.84
2023-01-31T06:06:44.687Z,98128.16
2023-01-31T06:09:11.741Z,98123.75
2023-01-31T06:11:41.246Z,98132.44
2023-01-31T06:14:09.061Z,98136.09
2023-01-31T06:16:35.735Z,98129.63
2023-01-31T06:19:02.772Z,98133.41
2023-01-31T06:21:29.422Z,98125.06
2023-01-31T06:23:56.057Z,98128.34
2023-01-31T06:26:25.025Z,98129.81
2023-01-31T06:28:51.574Z,98126.78
2023-01-31T06:31:21.279Z,98127.44
2023-01-31T06:33:48.268Z,98131.09
2023-01-31T06:36:18.921Z,98127.75
2023-01-31T06:38:49.721Z,98133.47
2023-01-31T06:41:16.350Z,98132.16
2023-01-31T06:43:45.312Z,98132.91
2023-01-31T06:46:12.183Z,98136.69
2023-01-31T06:48:41.145Z,98139.22
2023-01-31T06:51:07.665Z,98146.81
2023-01-31T06:53:36.613Z,98148.44
2023-01-31T06:56:03.206Z,98145.13
2023-01-31T06:58:30.236Z,98146.41
2023-01-31T07:00:56.964Z,98145.19
2023-01-31T07:03:23.464Z,98148.72
2023-01-31T07:05:49.925Z,98151.25
2023-01-31T07:08:19.471Z,98159.72
2023-01-31T07:10:48.167Z,98160.53
2023-01-31T07:13:15.127Z,98161.78
2023-01-31T07:15:41.943Z,98167.84
2023-01-31T07:18:08.574Z,98170.09
2023-01-31T07:20:35.244Z,98168.31
2023-01-31T07:23:01.755Z,98173.13
2023-01-31T07:25:28.382Z,98164.94
2023-01-31T07:27:54.900Z,98172.22
2023-01-31T07:30:21.860Z,98183.78
2023-01-31T07:32:48.386Z,98179.28
2023-01-31T07:35:14.935Z,98180.41
2023-01-31T07:37:43.447Z,98179.44
2023-01-31T07:40:11.398Z,98182.34
2023-01-31T07:42:37.970Z,98183.59
2023-01-31T07:45:22.454Z,98182.03
2023-01-31T07:47:49.706Z,98186.31
2023-01-31T07:50:16.429Z,98187.94
2023-01-31T07:52:43.017Z,98192.34
2023-01-31T07:55:09.613Z,98199.31
2023-01-31T07:57:39.172Z,98201.72
2023-01-31T08:00:26.255Z,98195.09
2023-01-31T08:03:11.137Z,98206.09
2023-01-31T08:05:37.712Z,98205.94
2023-01-31T08:08:12.664Z,98210.38
2023-01-31T08:10:39.586Z,98217.22
2023-01-31T08:13:06.479Z,98210.44
2023-01-31T08:15:34.191Z,98215.41
2023-01-31T08:18:06.127Z,98218.97
2023-01-31T08:20:33.265Z,98217.88
2023-01-31T08:22:59.989Z,98223.97
2023-01-31T08:25:30.546Z,98217.78
2023-01-31T08:27:57.988Z,98224.38
2023-01-31T08:30:24.551Z,98225.25
2023-01-31T08:32:51.053Z,98226.66
2023-01-31T08:35:17.663Z,98216.88
2023-01-31T08:37:44.324Z,98215.81
2023-01-31T08:40:13.728Z,98216.91
2023-01-31T08:42:40.195Z,98221.28
2023-01-31T08:45:07.285Z,98210.91
2023-01-31T08:47:34.124Z,98209.81
2023-01-31T08:50:00.633Z,98216.56
2023-01-31T08:52:29.426Z,98210.06
2023-01-31T08:54:55.951Z,98211.31
2023-01-31T08:57:25.090Z,98212.94
2023-01-31T08:59:51.601Z,98206.16
2023-01-31T09:02:18.173Z,98197.50
2023-01-31T09:04:45.477Z,98203.78
2023-01-31T09:07:11.952Z,98199.22
2023-01-31T09:09:41.271Z,98198.47
2023-01-31T09:12:08.092Z,98208.59
2023-01-31T09:14:34.557Z,98204.56
2023-01-31T09:17:01.070Z,98213.66
2023-01-31T09:19:27.577Z,98205.00
2023-01-31T09:21:54.058Z,98210.75
2023-01-31T09:24:20.580Z,98202.19
2023-01-31T09:26:47.093Z,98205.34
2023-01-31T09:29:13.630Z,98205.59
2023-01-31T09:31:40.193Z,98198.28
2023-01-31T09:34:06.683Z,98206.97
2023-01-31T09:36:33.145Z,98202.69
2023-01-31T09:38:59.656Z,98207.81
2023-01-31T09:41:41.810Z,98212.34
2023-01-31T09:44:14.174Z,98209.44
2023-01-31T09:46:47.697Z,98216.34
2023-01-31T09:49:25.110Z,98204.41
2023-01-31T09:52:01.993Z,98211.44
2023-01-31T09:54:39.952Z,98211.59
2023-01-31T09:57:12.605Z,98213.88
2023-01-31T10:00:17.953Z,98209.84
2023-01-31T10:03:11.527Z,98207.47
2023-01-31T10:06:24.522Z,98198.78
2023-01-31T10:09:10.643Z,98199.81
2023-01-31T10:11:44.852Z,98190.31
2023-01-31T10:15:01.511Z,98170.66
2023-01-31T10:17:33.754Z,98173.56
2023-01-31T10:20:08.348Z,98177.28
2023-01-31T10:22:39.929Z,98179.91
2023-01-31T10:25:16.392Z,98175.72
2023-01-31T10:27:49.153Z,98177.03
2023-01-31T10:30:19.913Z,98175.91
2023-01-31T10:32:51.826Z,98168.84
2023-01-31T10:35:31.769Z,98167.84
2023-01-31T10:38:12.595Z,98155.81
2023-01-31T10:40:42.034Z,98165.97
2023-01-31T10:43:14.620Z,98162.81
2023-01-31T10:45:42.232Z,98148.91
2023-01-31T10:48:16.253Z,98148.16
2023-01-31T10:51:17.472Z,98139.63
2023-01-31T10:54:42.488Z,98131.00
2023-01-31T10:57:09.349Z,98142.16
2023-01-31T10:59:40.549Z,98143.59
2023-01-31T11:02:19.361Z,98133.50
2023-01-31T11:04:51.909Z,98136.88
2023-01-31T11:07:19.668Z,98137.50
2023-01-31T11:09:54.676Z,98136.88
2023-01-31T11:12:22.847Z,98134.78
2023-01-31T11:15:14.258Z,98126.81
2023-01-31T11:17:43.996Z,98118.63
2023-01-31T11:20:28.859Z,98105.69
2023-01-31T11:22:57.191Z,98109.44
2023-01-31T11:25:26.582Z,98110.09
2023-01-31T11:27:57.861Z,98113.66
2023-01-31T11:30:38.710Z,98106.94
2023-01-31T11:33:05.668Z,98089.22
2023-01-31T11:35:34.516Z,98100.81
2023-01-31T11:38:22.898Z,98092.94
2023-01-31T11:40:49.468Z,98086.41
2023-01-31T11:43:19.044Z,98080.09
2023-01-31T11:45:53.833Z,98082.97
2023-01-31T11:48:24.245Z,98070.88
2023-01-31T11:51:00.287Z,98074.78
2023-01-31T11:53:43.353Z,98059.91
2023-01-31T11:56:34.509Z,98061.34
2023-01-31T11:59:04.211Z,98050.97
2023-01-31T12:01:31.040Z,98061.75
2023-01-31T12:04:03.410Z,98047.44
2023-01-31T12:06:36.609Z,98042.06
2023-01-31T12:09:21.024Z,98045.34
2023-01-31T12:11:54.080Z,98052.03
2023-01-31T12:14:21.207Z,98043.59
2023-01-31T12:16:54.099Z,98035.66
2023-01-31T12:19:29.659Z,98038.91
2023-01-31T12:22:14.965Z,98033.00
2023-01-31T12:25:03.003Z,98022.50
2023-01-31T12:27:38.699Z,98011.50
2023-01-31T12:30:43.056Z,98010.66
2023-01-31T12:33:27.932Z,98010.22
2023-01-31T12:36:23.128Z,98008.06
2023-01-31T12:39:15.292Z,98021.47
2023-01-31T12:41:55.354Z,98018.78
2023-01-31T12:44:22.100Z,98023.56
2023-01-31T12:46:54.746Z,98030.13
2023-01-31T12:49:45.348Z,98023.34
2023-01-31T12:52:11.796Z,98022.94
2023-01-31T12:54:52.615Z,98026.31
2023-01-31T12:57:47.308Z,98020.00
2023-01-31T13:01:05.148Z,98013.31
2023-01-31T13:03:49.851Z,98020.72
2023-01-31T13:06:30.064Z,98008.88
2023-01-31T13:09:08.979Z,98012.41
2023-01-31T13:11:44.312Z,98000.97
2023-01-31T13:14:17.368Z,97992.84
2023-01-31T13:16:51.046Z,97995.69
2023-01-31T13:19:20.180Z,97992.84
2023-01-31T13:21:52.244Z,97988.94
2023-01-31T13:24:24.259Z,97986.22
2023-01-31T13:26:58.154Z,97985.50
2023-01-31T13:29:28.833Z,97997.03
2023-01-31T13:32:32.898Z,97979.38
2023-01-31T13:35:05.183Z,97981.44
2023-01-31T13:37:36.361Z,97966.72
2023-01-31T13:40:24.997Z,97967.19
2023-01-31T13:42:53.472Z,97969.88
2023-01-31T13:45:25.899Z,97964.66
2023-01-31T13:48:00.543Z,97963.94
2023-01-31T13:50:37.058Z,97965.97
2023-01-31T13:53:06.894Z,97966.16
2023-01-31T13:55:42.814Z,97971.22
2023-01-31T13:58:28.766Z,97961.56
2023-01-31T14:01:08.002Z,97954.81
2023-01-31T14:04:11.837Z,97960.31
2023-01-31T14:06:56.444Z,97978.22
2023-01-31T14:09:28.327Z,97963.59
2023-01-31T14:12:20.911Z,97959.06
2023-01-31T14:14:54.328Z,97956.53
2023-01-31T14:17:23.786Z,97954.81
2023-01-31T14:19:50.315Z,97950.78
2023-01-31T14:22:23.764Z,97942.09
2023-01-31T14:24:50.668Z,97934.81
2023-01-31T14:27:21.817Z,97921.03
2023-01-31T14:30:07.276Z,97927.66
2023-01-31T14:32:43.286Z,97931.75
2023-01-31T14:35:12.766Z,97928.66
2023-01-31T14:37:39.229Z,97933.59
2023-01-31T14:40:27.593Z,97926.75
2023-01-31T14:43:22.285Z,97919.41
2023-01-31T14:46:12.977Z,97902.84
2023-01-31T14:48:42.479Z,97907.72
2023-01-31T14:51:17.649Z,97916.88
2023-01-31T14:54:08.617Z,97918.16
2023-01-31T14:56:43.798Z,97914.28
2023-01-31T14:59:39.651Z,97905.53
2023-01-31T15:02:50.772Z,97906.19
2023-01-31T15:05:22.633Z,97900.78
2023-01-31T15:08:13.547Z,97899.53
2023-01-31T15:11:04.109Z,97911.09
2023-01-31T15:13:49.054Z,97905.75
2023-01-31T15:16:39.361Z,97904.38
2023-01-31T15:19:20.484Z,97896.59
2023-01-31T15:21:55.604Z,97895.63
2023-01-31T15:24:40.391Z,97893.03
2023-01-31T15:27:15.775Z,97891.25
2023-01-31T15:29:56.175Z,97886.59
2023-01-31T15:32:45.752Z,97897.00
2023-01-31T15:35:35.050Z,97903.59
2023-01-31T15:38:04.562Z,97907.22
2023-01-31T15:40:31.736Z,97906.19
2023-01-31T15:43:17.112Z,97909.19
2023-01-31T15:45:43.717Z,97900.84
2023-01-31T15:48:16.290Z,97914.78
2023-01-31T15:50:56.501Z,97906.03
2023-01-31T15:53:25.867Z,97913.31
2023-01-31T15:55:56.436Z,97920.94
2023-01-31T15:58:25.754Z,97913.94
2023-01-31T16:00:57.713Z,97901.47
2023-01-31T16:03:27.396Z,97888.75
2023-01-31T16:05:57.003Z,97896.88
2023-01-31T16:08:33.811Z,97891.41
2023-01-31T16:11:07.996Z,97888.97
2023-01-31T16:13:37.858Z,97905.63
2023-01-31T16:16:07.173Z,97928.16
2023-01-31T16:18:37.340Z,97930.72
2023-01-31T16:21:23.864Z,97919.41
2023-01-31T16:24:15.139Z,97916.22
2023-01-31T16:26:57.251Z,97902.72
2023-01-31T16:29:43.841Z,97904.69
2023-01-31T16:32:24.570Z,97907.34
2023-01-31T16:35:24.528Z,97924.47
2023-01-31T16:38:07.780Z,97945.56
2023-01-31T16:40:47.538Z,97948.34
2023-01-31T16:43:25.949Z,97938.97
2023-01-31T16:45:58.244Z,97944.16
2023-01-31T16:48:31.915Z,97929.25
2023-01-31T16:50:59.679Z,97914.78
2023-01-31T16:53:30.690Z,97904.34
2023-01-31T16:56:18.359Z,97902.94
2023-01-31T16:58:48.390Z,97896.72
2023-01-31T17:01:27.748Z,97894.72
2023-01-31T17:04:09.691Z,97889.50
2023-01-31T17:06:37.507Z,97896.00
2023-01-31T17:09:08.868Z,97898.75
2023-01-31T17:11:43.618Z,97907.59
2023-01-31T17:14:11.086Z,97921.72
2023-01-31T17:16:40.590Z,97929.56
2023-01-31T17:19:07.056Z,97921.59
2023-01-31T17:21:40.886Z,97904.72
2023-01-31T17:24:13.461Z,97911.19
2023-01-31T17:26:40.029Z,97910.00
2023-01-31T17:29:06.564Z,97907.50
2023-01-31T17:31:34.587Z,97913.75
2023-01-31T17:34:01.543Z,97903.09
2023-01-31T17:36:27.988Z,97902.63
2023-01-31T17:38:54.459Z,97905.47
2023-01-31T17:41:24.711Z,97900.34
2023-01-31T17:43:51.363Z,97897.41
2023-01-31T17:46:19.016Z,97899.91
2023-01-31T17:48:45.603Z,97905.22
2023-01-31T17:51:12.908Z,97913.63
2023-01-31T17:53:49.928Z,97911.91
2023-01-31T17:56:19.838Z,97916.78
2023-01-31T17:58:46.296Z,97911.28
2023-01-31T18:01:14.172Z,97905.94
2023-01-31T18:03:41.812Z,97924.06
2023-01-31T18:06:11.386Z,97923.25
2023-01-31T18:08:38.214Z,97921.22
2023-01-31T18:11:10.918Z,97919.47
2023-01-31T18:13:39.093Z,97923.28
2023-01-31T18:16:18.166Z,97915.81
2023-01-31T18:18:44.798Z,97912.56
2023-01-31T18:21:13.080Z,97913.91
2023-01-31T18:23:41.833Z,97921.38
2023-01-31T18:26:09.948Z,97918.34
2023-01-31T18:28:37.110Z,97918.63
2023-01-31T18:31:05.643Z,97922.91
2023-01-31T18:33:32.740Z,97921.16
2023-01-31T18:36:00.819Z,97917.25
2023-01-31T18:38:28.852Z,97913.25
2023-01-31T18:40:55.911Z,97913.44
2023-01-31T18:43:25.533Z,97917.03
2023-01-31T18:45:52.254Z,97910.66
2023-01-31T18:48:18.713Z,97921.47
2023-01-31T18:50:45.233Z,97916.88
2023-01-31T18:53:11.719Z,97923.19
2023-01-31T18:55:38.202Z,97929.44
2023-01-31T18:58:04.711Z,97935.28
2023-01-31T19:00:33.452Z,97942.63
2023-01-31T19:02:59.928Z,97941.03
2023-01-31T19:05:26.969Z,97942.28
2023-01-31T19:07:53.452Z,97934.56
2023-01-31T19:10:20.012Z,97937.69
2023-01-31T19:12:47.689Z,97940.38
2023-01-31T19:15:14.161Z,97945.34
2023-01-31T19:17:40.812Z,97941.31
2023-01-31T19:20:08.023Z,97945.03
2023-01-31T19:22:36.999Z,97943.41
2023-01-31T19:25:09.069Z,97941.84
2023-01-31T19:27:35.909Z,97938.34
2023-01-31T19:30:04.602Z,97946.19
2023-01-31T19:32:31.306Z,97955.25
2023-01-31T19:34:57.830Z,97946.91
2023-01-31T19:37:24.335Z,97944.50
2023-01-31T19:39:53.073Z,97930.22
2023-01-31T19:42:20.563Z,97936.47
2023-01-31T19:44:49.649Z,97931.59
2023-01-31T19:47:16.219Z,97937.53
2023-01-31T19:49:45.213Z,97942.75
2023-01-31T19:52:11.915Z,97929.34
2023-01-31T19:54:41.261Z,97927.50
2023-01-31T19:57:07.828Z,97926.09
2023-01-31T19:59:36.829Z,97916.13
2023-01-31T20:02:03.336Z,97918.50
2023-01-31T20:04:32.718Z,97910.44
2023-01-31T20:06:59.342Z,97910.94
2023-01-31T20:09:25.835Z,97914.50
2023-01-31T20:11:53.927Z,97920.78
2023-01-31T20:14:23.158Z,97927.44
2023-01-31T20:16:49.785Z,97932.47
2023-01-31T20:19:16.580Z,97939.72
2023-01-31T20:21:43.767Z,97935.91
2023-01-31T20:24:13.522Z,97942.31
2023-01-31T20:26:40.156Z,97938.03
2023-01-31T20:29:09.076Z,97928.13
2023-01-31T20:31:35.981Z,97924.78
2023-01-31T20:34:06.602Z,97919.75
2023-01-31T20:36:33.102Z,97910.09
2023-01-31T20:39:01.908Z,97912.88
2023-01-31T20:41:29.524Z,97905.75
2023-01-31T20:43:56.122Z,97902.00
2023-01-31T20:46:22.765Z,97901.22
2023-01-31T20:48:49.447Z,97899.56
2023-01-31T20:51:18.145Z,97899.16
2023-01-31T20:53:44.644Z,97894.00
2023-01-31T20:56:13.728Z,97894.00
2023-01-31T20:58:42.532Z,97893.22
2023-01-31T21:01:11.324Z,97901.50
2023-01-31T21:03:38.027Z,97911.53
2023-01-31T21:06:05.508Z,97911.41
2023-01-31T21:08:32.621Z,97915.50
2023-01-31T21:10:59.541Z,97900.66
2023-01-31T21:13:31.560Z,97911.59
2023-01-31T21:16:00.556Z,97911.22
2023-01-31T21:18:28.517Z,97902.38
2023-01-31T21:20:55.815Z,97899.63
2023-01-31T21:23:22.412Z,97900.09
2023-01-31T21:25:49.249Z,97895.69
2023-01-31T21:28:15.886Z,97905.63
2023-01-31T21:30:44.767Z,97911.81
2023-01-31T21:33:11.346Z,97912.31
2023-01-31T21:35:37.921Z,97907.41
2023-01-31T21:38:04.503Z,97899.53
2023-01-31T21:40:31.245Z,97890.91
2023-01-31T21:42:57.736Z,97894.25
2023-01-31T21:45:39.721Z,97891.81
2023-01-31T21:48:29.771Z,97884.47
2023-01-31T21:50:59.630Z,97879.03
2023-01-31T21:53:29.306Z,97874.75
2023-01-31T21:56:09.679Z,97886.00
2023-01-31T21:58:37.746Z,97874.56
2023-01-31T22:01:18.019Z,97882.88
2023-01-31T22:03:48.174Z,97875.09
2023-01-31T22:06:17.658Z,97880.06
2023-01-31T22:08:44.425Z,97882.44
2023-01-31T22:11:15.113Z,97876.59
2023-01-31T22:13:51.333Z,97875.66
2023-01-31T22:16:20.785Z,97869.28
2023-01-31T22:18:48.408Z,97858.38
2023-01-31T22:21:20.284Z,97848.59
2023-01-31T22:23:55.198Z,97852.91
2023-01-31T22:26:34.232Z,97855.50
2023-01-31T22:29:02.751Z,97846.34
2023-01-31T22:31:32.244Z,97851.94
2023-01-31T22:34:00.104Z,97853.97
2023-01-31T22:36:27.420Z,97859.44
2023-01-31T22:38:54.625Z,97853.41
2023-01-31T22:41:21.736Z,97856.28
2023-01-31T22:43:50.202Z,97860.91
2023-01-31T22:46:20.901Z,97857.13
2023-01-31T22:48:49.477Z,97863.97
2023-01-31T22:51:18.991Z,97863.28
2023-01-31T22:53:45.466Z,97864.66
2023-01-31T22:56:15.039Z,97872.44
2023-01-31T22:58:42.511Z,97873.91
2023-01-31T23:01:21.174Z,97867.97
2023-01-31T23:03:48.523Z,97864.66
2023-01-31T23:06:16.647Z,97866.84
2023-01-31T23:08:43.695Z,97866.19
2023-01-31T23:11:12.914Z,97872.75
2023-01-31T23:13:40.163Z,97870.53
2023-01-31T23:16:08.246Z,97872.03
2023-01-31T23:18:35.302Z,97883.16
2023-01-31T23:21:16.413Z,97876.09
2023-01-31T23:23:45.720Z,97871.97
2023-01-31T23:26:12.760Z,97874.63
2023-01-31T23:28:39.803Z,97885.13
2023-01-31T23:31:06.663Z,97878.69
2023-01-31T23:33:33.271Z,97870.16
2023-01-31T23:35:59.711Z,97869.66
2023-01-31T23:38:26.227Z,97863.44
2023-01-31T23:40:54.116Z,97861.69
2023-01-31T23:43:21.983Z,97857.47
2023-01-31T23:45:48.876Z,97861.06
2023-01-31T23:48:18.379Z,97855.09
2023-01-31T23:50:47.277Z,97853.19
2023-01-31T23:53:13.748Z,97833.13
2023-01-31T23:55:40.352Z,97833.47
2023-01-31T23:58:06.839Z,97842.94
